createdAt,value
2018-02-17T12:34:10.229Z,48.31
2018-02-17T12:36:40.327Z,47.06
2018-02-17T12:39:10.640Z,47.45
2018-02-17T12:41:40.095Z,46.91
2018-02-17T12:44:09.523Z,47.31
2018-02-17T12:46:39.403Z,46.77
2018-02-17T12:49:08.800Z,44.99
2018-02-17T12:51:39.067Z,46.56
2018-02-17T12:54:09.520Z,47.17
2018-02-17T12:56:39.323Z,46.27
2018-02-17T12:59:08.847Z,46.15
2018-02-17T13:01:38.459Z,44.89
2018-02-17T13:04:08.581Z,43.96
2018-02-17T13:06:39.860Z,44.21
2018-02-17T13:12:07.978Z,46.05
2018-02-17T13:14:40.965Z,47.83
2018-02-17T14:10:12.233Z,49.92
2018-02-17T14:12:42.762Z,49.28
2018-02-17T14:15:12.277Z,48.76
2018-02-17T14:34:41.169Z,49.58
2018-02-17T14:41:51.419Z,48.79
2018-02-17T15:04:21.140Z,50.59
2018-02-17T15:06:50.696Z,49.80
2018-02-17T15:09:20.359Z,49.50
2018-02-17T15:11:55.121Z,49.29
2018-02-17T15:14:25.380Z,49.65
2018-02-17T15:17:00.231Z,49.31
2018-02-17T15:19:29.821Z,49.82
2018-02-17T15:21:59.356Z,49.99
2018-02-17T15:24:28.968Z,50.16
2018-02-17T15:26:59.633Z,50.87
2018-02-17T15:29:29.137Z,51.93
2018-02-17T15:31:59.321Z,52.09
2018-02-17T15:34:29.004Z,52.80
2018-02-17T15:36:59.104Z,53.00
2018-02-17T15:39:28.555Z,52.53
2018-02-17T15:41:58.127Z,52.09
2018-02-17T15:44:27.930Z,51.79
2018-02-17T15:46:58.148Z,51.90
2018-02-17T15:49:32.286Z,52.54
2018-02-17T15:52:02.761Z,52.81
2018-02-17T15:54:32.213Z,52.28
2018-02-17T15:57:01.649Z,52.56
2018-02-17T15:59:32.589Z,53.10
2018-02-17T16:02:02.223Z,53.99
2018-02-17T16:04:32.340Z,53.78
2018-02-17T16:07:10.136Z,54.05
2018-02-17T16:09:45.779Z,54.76
2018-02-17T16:12:50.698Z,53.98
2018-02-17T16:15:43.887Z,53.26
2018-02-17T16:22:12.882Z,54.08
2018-02-17T16:25:05.638Z,54.88
2018-02-17T16:27:44.912Z,53.98
2018-02-17T16:30:53.414Z,53.40
2018-02-17T18:31:26.334Z,53.94
2018-02-17T18:36:39.536Z,53.80
2018-02-17T18:39:09.328Z,53.57
2018-02-17T18:41:38.777Z,53.92
2018-02-17T18:47:50.026Z,54.75
2018-02-17T18:53:37.659Z,55.10
2018-02-17T18:56:29.584Z,54.66
2018-02-17T19:02:24.075Z,53.88
2018-02-17T19:05:27.297Z,53.62
2018-02-17T19:07:58.043Z,54.39
2018-02-17T20:58:54.357Z,54.72
2018-02-17T21:07:47.613Z,54.92
2018-02-17T21:13:28.841Z,54.97
2018-02-17T21:22:06.553Z,54.67
2018-02-17T21:24:58.443Z,54.18
2018-02-17T21:27:47.602Z,54.64
2018-02-17T21:30:28.442Z,55.29
2018-02-17T21:33:19.140Z,55.35
2018-02-17T21:35:58.117Z,56.20
2018-02-17T21:47:24.329Z,56.52
2018-02-17T21:49:55.636Z,56.03
2018-02-17T21:52:39.830Z,55.87
2018-02-17T21:55:09.691Z,56.19
2018-02-17T22:11:39.281Z,55.23
2018-02-17T22:14:14.517Z,55.65
2018-02-17T22:16:50.269Z,55.76
2018-02-17T22:25:13.661Z,58.97
2018-02-17T22:27:43.718Z,58.03
2018-02-17T22:39:21.379Z,56.63
2018-02-17T22:42:12.350Z,56.33
2018-02-17T22:44:53.935Z,56.70
2018-02-17T22:47:28.860Z,56.88
2018-02-17T22:49:59.817Z,56.63
2018-02-17T22:52:40.650Z,56.83
2018-02-17T22:55:10.211Z,55.71
2018-02-17T22:57:42.804Z,55.90
2018-02-17T23:00:38.319Z,55.97
2018-02-17T23:03:36.551Z,56.50
2018-02-17T23:06:10.720Z,56.67
2018-02-17T23:08:41.119Z,56.54
2018-02-17T23:14:09.900Z,56.50
2018-02-17T23:20:15.678Z,55.40
2018-02-17T23:22:45.344Z,55.67
2018-02-17T23:25:20.492Z,55.96
2018-02-17T23:27:56.507Z,56.20
2018-02-17T23:30:25.941Z,56.18
2018-02-17T23:32:56.512Z,55.78
2018-02-17T23:35:26.536Z,56.53
2018-02-17T23:37:57.254Z,56.89
2018-02-17T23:40:48.961Z,57.41
2018-02-17T23:43:35.505Z,56.92
2018-02-17T23:46:11.369Z,55.92
2018-02-17T23:48:41.020Z,56.46
2018-02-17T23:51:11.785Z,56.64
2018-02-17T23:53:42.117Z,56.15
